Time;durP1;ratioP1;P1;durP2;ratioP2;P2;SDS_P1;SDS_P2;PMS_P1;PMS_P2;Temp;Humidity;BMP_temperature;BMP_pressure;BME280_temperature;BME280_humidity;BME280_pressure;Samples;Min_cycle;Max_cycle;Signal;HPM_P1;HPM_P2
2022/06/18 00:01:37;;;;;;;8.15;4.28;;;13.40;99.90;;;;;;5071992;28;20112;-51
2022/06/18 00:04:06;;;;;;;7.53;4.18;;;13.30;99.90;;;;;;5071922;28;20025;-53
2022/06/18 00:06:40;;;;;;;4.13;3.72;;;13.30;99.90;;;;;;5074119;28;20025;-53
2022/06/18 00:09:06;;;;;;;5.75;4.43;;;13.30;99.90;;;;;;5071984;28;20041;-53
2022/06/18 00:14:17;;;;;;;10.32;4.10;;;13.20;99.90;;;;;;5092874;28;20039;-52
2022/06/18 00:16:42;;;;;;;7.30;3.92;;;13.20;99.90;;;;;;5092338;28;20024;-51
2022/06/18 00:19:09;;;;;;;12.18;4.10;;;13.20;99.90;;;;;;5092654;28;20024;-54
2022/06/18 00:21:35;;;;;;;6.22;3.85;;;13.20;99.90;;;;;;5092766;28;20418;-52
2022/06/18 00:24:00;;;;;;;9.75;4.28;;;13.20;99.90;;;;;;5091966;28;20049;-52
2022/06/18 00:26:51;;;;;;;5.85;5.25;;;13.10;99.90;;;;;;5088480;28;20038;-51
2022/06/18 00:29:18;;;;;;;13.75;4.40;;;13.20;99.90;;;;;;5071662;28;20539;-51
2022/06/18 00:31:44;;;;;;;8.55;4.25;;;13.10;99.90;;;;;;5071806;28;20031;-54
2022/06/18 00:34:10;;;;;;;5.47;4.15;;;13.10;99.90;;;;;;5071530;28;20024;-52
2022/06/18 00:36:41;;;;;;;14.95;5.03;;;13.10;99.90;;;;;;5071735;28;20024;-53
2022/06/18 00:39:11;;;;;;;11.50;4.78;;;13.00;99.90;;;;;;5072506;28;20025;-52
2022/06/18 00:41:40;;;;;;;14.15;4.43;;;13.00;99.90;;;;;;5072809;28;20024;-53
2022/06/18 00:44:30;;;;;;;5.13;4.45;;;13.00;99.90;;;;;;5091538;28;20111;-50
2022/06/18 00:47:30;;;;;;;8.63;4.45;;;12.90;99.90;;;;;;5091978;28;20028;-52
2022/06/18 00:50:22;;;;;;;8.82;4.30;;;13.00;99.90;;;;;;5091806;28;20031;-53
2022/06/18 00:52:55;;;;;;;10.45;4.90;;;13.00;99.90;;;;;;5089282;28;20047;-54
2022/06/18 00:55:41;;;;;;;7.30;5.17;;;13.00;99.90;;;;;;5071476;28;20482;-51
2022/06/18 00:58:17;;;;;;;10.27;4.72;;;13.00;99.90;;;;;;5071416;28;20013;-51
2022/06/18 01:00:46;;;;;;;8.18;4.72;;;13.10;99.90;;;;;;5071432;28;20024;-52
2022/06/18 01:03:43;;;;;;;5.38;4.63;;;13.10;99.90;;;;;;5071428;28;20464;-53
2022/06/18 01:06:32;;;;;;;5.80;4.80;;;13.10;99.90;;;;;;5066734;28;20102;-53
2022/06/18 01:09:06;;;;;;;12.80;4.57;;;13.20;99.90;;;;;;5081686;28;20032;-52
2022/06/18 01:11:38;;;;;;;8.52;5.55;;;13.20;99.90;;;;;;5077493;28;20031;-53
2022/06/18 01:14:07;;;;;;;8.68;4.60;;;13.10;99.90;;;;;;5075128;28;20024;-52
2022/06/18 01:16:33;;;;;;;13.70;4.30;;;13.10;99.90;;;;;;5075041;28;20496;-51
2022/06/18 01:19:00;;;;;;;5.60;4.20;;;13.10;99.90;;;;;;5074455;28;20123;-51
2022/06/18 01:21:48;;;;;;;12.65;4.40;;;13.00;99.90;;;;;;5107536;28;20036;-50
2022/06/18 01:24:21;;;;;;;14.85;4.97;;;13.00;99.90;;;;;;5074983;28;20120;-55
2022/06/18 01:26:50;;;;;;;17.33;5.78;;;13.00;99.90;;;;;;5075035;28;20403;-53
2022/06/18 01:29:16;;;;;;;12.82;4.70;;;12.90;99.90;;;;;;5075263;28;20094;-53
2022/06/18 01:31:43;;;;;;;10.30;4.95;;;12.90;99.90;;;;;;5075007;28;20414;-52
2022/06/18 01:34:09;;;;;;;8.02;4.63;;;12.80;99.90;;;;;;5093937;28;20115;-50
2022/06/18 01:36:36;;;;;;;7.55;5.50;;;12.80;99.90;;;;;;5095332;28;20024;-51
2022/06/18 01:39:09;;;;;;;9.50;5.07;;;12.70;99.90;;;;;;5095000;28;20072;-52
2022/06/18 01:41:51;;;;;;;9.50;5.07;;;12.70;99.90;;;;;;5094887;28;20043;-54
2022/06/18 01:44:36;;;;;;;13.65;5.05;;;12.60;99.90;;;;;;5095236;28;20439;-52
2022/06/18 01:47:27;;;;;;;6.47;4.88;;;12.70;99.90;;;;;;5093333;28;21581;-55
2022/06/18 01:50:13;;;;;;;17.10;7.60;;;12.70;99.90;;;;;;5094795;28;20039;-54
2022/06/18 01:52:45;;;;;;;19.23;5.15;;;12.70;99.90;;;;;;5094817;28;20042;-52
2022/06/18 01:55:17;;;;;;;12.07;5.30;;;12.60;99.90;;;;;;5092784;28;20375;-52
2022/06/18 01:57:51;;;;;;;13.38;5.38;;;12.60;99.90;;;;;;5094774;28;20028;-54
2022/06/18 02:00:22;;;;;;;13.90;5.53;;;12.60;99.90;;;;;;5094576;28;20048;-52
2022/06/18 02:03:01;;;;;;;13.05;5.88;;;12.60;99.90;;;;;;5093384;28;20479;-53
2022/06/18 02:05:28;;;;;;;9.90;5.65;;;12.70;99.90;;;;;;5094594;28;20055;-53
2022/06/18 02:07:53;;;;;;;15.43;5.55;;;12.60;99.90;;;;;;5094616;28;20107;-51
2022/06/18 02:10:28;;;;;;;7.97;5.20;;;12.60;99.90;;;;;;5076353;28;20120;-52
2022/06/18 02:12:56;;;;;;;7.82;4.90;;;12.60;99.90;;;;;;5074091;28;20399;-53
2022/06/18 02:15:27;;;;;;;8.65;5.95;;;12.60;99.90;;;;;;5074019;28;20024;-54
2022/06/18 02:17:53;;;;;;;15.07;5.00;;;12.50;99.90;;;;;;5074255;28;20443;-54
2022/06/18 02:20:26;;;;;;;10.68;5.22;;;12.50;99.90;;;;;;5073747;28;20029;-55
2022/06/18 02:22:55;;;;;;;11.52;4.93;;;12.50;99.90;;;;;;5074171;28;20020;-51
2022/06/18 02:25:23;;;;;;;9.65;5.47;;;12.50;99.90;;;;;;5093390;28;20071;-54
2022/06/18 02:27:55;;;;;;;7.50;5.07;;;12.40;99.90;;;;;;5094314;28;20030;-51
2022/06/18 02:30:39;;;;;;;9.98;5.72;;;12.40;99.90;;;;;;5093774;28;20024;-54
2022/06/18 02:33:32;;;;;;;9.27;5.93;;;12.40;99.90;;;;;;5093549;28;20051;-53
2022/06/18 02:36:12;;;;;;;6.55;5.55;;;12.30;99.90;;;;;;5094131;28;20383;-52
2022/06/18 02:38:37;;;;;;;5.88;5.25;;;12.30;99.90;;;;;;5093991;28;20038;-50
2022/06/18 02:41:03;;;;;;;9.85;5.85;;;12.30;99.90;;;;;;5093532;28;20395;-52
2022/06/18 02:43:29;;;;;;;11.30;5.78;;;12.30;99.90;;;;;;5093980;28;20111;-51
2022/06/18 02:45:56;;;;;;;18.20;5.25;;;12.20;99.90;;;;;;5093876;28;20036;-51
2022/06/18 02:48:26;;;;;;;9.15;5.40;;;12.20;99.90;;;;;;5082115;28;20082;-53
2022/06/18 02:50:53;;;;;;;15.82;5.65;;;12.20;99.90;;;;;;5073427;28;20381;-52
2022/06/18 02:53:19;;;;;;;9.60;6.07;;;12.20;99.90;;;;;;5073287;28;20017;-53
2022/06/18 02:55:49;;;;;;;12.65;5.70;;;12.20;99.90;;;;;;5073314;28;20013;-53
2022/06/18 02:58:24;;;;;;;16.77;5.32;;;12.10;99.90;;;;;;5073139;28;20025;-52
2022/06/18 03:00:56;;;;;;;8.18;5.25;;;12.10;99.90;;;;;;5073055;28;20020;-51
2022/06/18 03:03:28;;;;;;;9.85;5.55;;;12.10;99.90;;;;;;5077355;28;20522;-52
2022/06/18 03:05:54;;;;;;;12.43;4.85;;;12.10;99.90;;;;;;5093402;28;20028;-52
2022/06/18 03:08:22;;;;;;;18.17;5.57;;;12.10;99.90;;;;;;5093027;28;20085;-50
2022/06/18 03:13:36;;;;;;;14.68;5.57;;;11.90;99.90;;;;;;5093523;28;20030;-51
2022/06/18 03:16:03;;;;;;;11.75;6.35;;;11.90;99.90;;;;;;5092956;28;20528;-53
2022/06/18 03:18:31;;;;;;;8.32;6.25;;;11.90;99.90;;;;;;5092779;28;20103;-54
2022/06/18 03:21:06;;;;;;;14.73;6.15;;;11.90;99.90;;;;;;5093136;28;20016;-54
2022/06/18 03:23:32;;;;;;;9.82;6.18;;;12.00;99.90;;;;;;5092897;28;20031;-51
2022/06/18 03:25:57;;;;;;;13.98;6.07;;;12.00;99.90;;;;;;5093022;28;20020;-53
2022/06/18 03:28:26;;;;;;;10.52;6.38;;;12.10;99.90;;;;;;5092670;28;20035;-53
2022/06/18 03:30:52;;;;;;;10.05;6.03;;;12.10;99.90;;;;;;5092596;28;20027;-53
2022/06/18 03:33:18;;;;;;;12.50;5.50;;;12.10;99.90;;;;;;5082803;28;20384;-52
2022/06/18 03:35:47;;;;;;;15.45;6.13;;;12.10;99.90;;;;;;5072760;28;20063;-50
2022/06/18 03:38:14;;;;;;;15.60;6.43;;;12.10;99.90;;;;;;5072230;28;20013;-54
2022/06/18 03:40:40;;;;;;;11.90;5.82;;;12.10;99.90;;;;;;5072344;28;20620;-52
2022/06/18 03:43:06;;;;;;;9.77;6.45;;;12.20;99.90;;;;;;5072290;28;20431;-51
2022/06/18 03:45:38;;;;;;;21.98;6.60;;;12.10;99.90;;;;;;5072398;28;20112;-52
2022/06/18 03:48:05;;;;;;;8.60;5.70;;;12.10;99.90;;;;;;5072140;28;20044;-50
2022/06/18 03:50:30;;;;;;;14.23;5.93;;;12.10;99.90;;;;;;5072157;28;20426;-54
2022/06/18 03:52:56;;;;;;;16.30;5.80;;;12.20;99.90;;;;;;5072216;28;20032;-53
2022/06/18 03:55:46;;;;;;;10.05;7.50;;;12.20;99.90;;;;;;5072179;28;20480;-52
2022/06/18 03:58:13;;;;;;;13.90;6.80;;;12.30;99.90;;;;;;5071790;28;20111;-51
2022/06/18 04:00:39;;;;;;;10.77;6.55;;;12.40;99.90;;;;;;5072050;28;20016;-52
2022/06/18 04:03:08;;;;;;;11.68;6.30;;;12.40;99.90;;;;;;5082746;28;20056;-50
2022/06/18 04:05:38;;;;;;;15.20;7.05;;;12.60;99.90;;;;;;5092772;28;20032;-52
2022/06/18 04:08:04;;;;;;;11.32;6.18;;;12.60;99.90;;;;;;5091497;28;20119;-53
2022/06/18 04:10:30;;;;;;;14.90;6.53;;;12.70;99.90;;;;;;5091838;28;20102;-54
2022/06/18 04:12:56;;;;;;;14.38;6.95;;;12.90;99.90;;;;;;5092460;28;20093;-54
2022/06/18 04:15:22;;;;;;;15.73;6.63;;;12.90;99.90;;;;;;5092383;28;20028;-52
2022/06/18 04:17:48;;;;;;;15.80;6.32;;;13.00;99.90;;;;;;5092011;28;20031;-51
2022/06/18 04:20:23;;;;;;;7.32;5.50;;;13.10;99.90;;;;;;5091991;28;20108;-53
2022/06/18 04:22:49;;;;;;;8.68;5.55;;;13.30;99.90;;;;;;5092055;28;20020;-52
2022/06/18 04:25:15;;;;;;;10.60;7.45;;;13.50;99.90;;;;;;5091791;28;20445;-55
2022/06/18 04:27:41;;;;;;;13.10;5.50;;;13.70;99.90;;;;;;5092062;28;20111;-54
2022/06/18 04:30:07;;;;;;;7.32;5.05;;;13.90;99.90;;;;;;5091489;28;20463;-55
2022/06/18 04:32:35;;;;;;;14.32;5.40;;;14.10;99.90;;;;;;5080731;28;20047;-54
2022/06/18 04:35:02;;;;;;;9.02;5.00;;;14.30;99.90;;;;;;5071552;28;20017;-54
2022/06/18 04:37:28;;;;;;;8.10;5.05;;;14.50;99.90;;;;;;5071926;28;20062;-52
2022/06/18 04:39:53;;;;;;;5.60;5.00;;;14.90;99.90;;;;;;5071871;28;20504;-54
2022/06/18 04:42:19;;;;;;;8.45;5.18;;;15.10;99.90;;;;;;5071383;28;20345;-54
2022/06/18 04:44:44;;;;;;;9.80;5.60;;;15.20;99.90;;;;;;5075206;28;20421;-51
2022/06/18 04:47:10;;;;;;;6.35;5.32;;;15.40;99.90;;;;;;5087970;28;20028;-54
2022/06/18 04:49:36;;;;;;;5.50;4.57;;;15.50;99.90;;;;;;5096934;28;20020;-54
2022/06/18 04:52:02;;;;;;;8.13;5.18;;;15.60;99.90;;;;;;5098308;28;20100;-55
2022/06/18 04:54:27;;;;;;;7.50;5.15;;;15.90;99.90;;;;;;5097535;28;20028;-53
2022/06/18 04:56:53;;;;;;;11.48;5.22;;;16.10;99.90;;;;;;5078297;28;20021;-55
2022/06/18 04:59:19;;;;;;;5.93;4.93;;;16.10;99.90;;;;;;5077777;28;20024;-52
2022/06/18 05:05:14;;;;;;;13.45;5.07;;;16.20;99.90;;;;;;5078194;28;20119;-54
2022/06/18 05:07:40;;;;;;;10.07;5.57;;;16.40;99.90;;;;;;5077888;28;20078;-55
2022/06/18 05:10:06;;;;;;;10.05;4.93;;;16.50;99.90;;;;;;5077276;28;20294;-54
2022/06/18 05:12:32;;;;;;;7.03;4.55;;;16.50;99.90;;;;;;5078049;28;20502;-55
2022/06/18 05:14:58;;;;;;;6.32;5.20;;;16.40;99.90;;;;;;5077956;28;20028;-52
2022/06/18 05:17:28;;;;;;;9.00;4.57;;;16.50;99.90;;;;;;5076395;28;20037;-55
2022/06/18 05:19:54;;;;;;;6.82;5.00;;;16.60;99.90;;;;;;5078116;28;20028;-54
2022/06/18 05:22:20;;;;;;;9.05;5.10;;;16.60;99.90;;;;;;5077645;28;20086;-54
2022/06/18 05:24:45;;;;;;;5.40;4.78;;;16.60;99.90;;;;;;5084901;28;20504;-55
2022/06/18 05:27:22;;;;;;;6.85;5.25;;;16.60;99.90;;;;;;5098056;28;20016;-53
2022/06/18 05:29:47;;;;;;;9.82;6.10;;;16.60;99.90;;;;;;5098184;28;20348;-54
2022/06/18 05:32:13;;;;;;;6.25;5.28;;;16.60;99.90;;;;;;5098073;28;20096;-52
2022/06/18 05:34:39;;;;;;;4.90;4.50;;;16.50;99.90;;;;;;5098304;28;20375;-55
2022/06/18 05:37:16;;;;;;;7.53;5.20;;;16.50;99.90;;;;;;5097838;28;20020;-51
2022/06/18 05:39:42;;;;;;;10.98;5.85;;;16.60;99.90;;;;;;5089255;28;20128;-55
2022/06/18 05:42:08;;;;;;;7.50;5.72;;;16.70;99.90;;;;;;5077908;28;20059;-53
2022/06/18 05:44:35;;;;;;;7.45;4.80;;;16.90;99.90;;;;;;5097752;28;20692;-54
2022/06/18 05:47:01;;;;;;;7.53;5.80;;;17.00;99.90;;;;;;5097960;28;20058;-55
2022/06/18 05:49:26;;;;;;;6.38;5.78;;;17.10;99.90;;;;;;5098215;28;20051;-55
2022/06/18 05:51:52;;;;;;;7.97;4.90;;;17.30;99.90;;;;;;5098285;28;20016;-55
2022/06/18 05:54:18;;;;;;;8.60;5.22;;;17.50;99.90;;;;;;5093973;28;20066;-55
2022/06/18 05:56:44;;;;;;;10.75;5.15;;;17.70;99.90;;;;;;5074209;28;20491;-54
2022/06/18 05:59:11;;;;;;;5.78;4.55;;;17.80;99.90;;;;;;5074034;28;20021;-55
2022/06/18 06:01:37;;;;;;;5.13;4.50;;;17.80;99.90;;;;;;5074700;28;20073;-53
2022/06/18 06:04:03;;;;;;;11.77;4.47;;;17.90;99.90;;;;;;5090119;28;20028;-56
2022/06/18 06:06:29;;;;;;;10.40;4.85;;;18.10;99.90;;;;;;5073770;28;20020;-53
2022/06/18 06:08:55;;;;;;;9.77;4.68;;;18.20;99.90;;;;;;5073801;28;20039;-55
2022/06/18 06:11:29;;;;;;;7.20;5.10;;;18.30;99.90;;;;;;5073877;28;20025;-55
2022/06/18 06:14:00;;;;;;;5.72;4.88;;;18.40;99.90;;;;;;5074103;28;20054;-54
2022/06/18 06:16:27;;;;;;;7.05;5.85;;;18.70;99.90;;;;;;5074006;28;20032;-54
2022/06/18 06:18:53;;;;;;;5.30;4.80;;;18.70;99.90;;;;;;5076661;28;20029;-55
2022/06/18 06:21:19;;;;;;;10.93;4.68;;;18.90;99.90;;;;;;5089756;28;20035;-55
2022/06/18 06:23:45;;;;;;;10.60;4.93;;;19.10;99.90;;;;;;5073564;28;20030;-53
2022/06/18 06:26:21;;;;;;;5.55;4.57;;;19.20;99.90;;;;;;5073509;28;20021;-54
2022/06/18 06:28:48;;;;;;;5.88;4.75;;;19.30;99.90;;;;;;5073896;28;20016;-55
2022/06/18 06:31:14;;;;;;;6.20;4.45;;;19.50;99.90;;;;;;5073667;28;20020;-55
2022/06/18 06:33:40;;;;;;;9.32;4.10;;;19.50;99.90;;;;;;5073778;28;20028;-55
2022/06/18 06:36:06;;;;;;;4.40;4.00;;;19.60;99.90;;;;;;5073635;28;20031;-54
2022/06/18 06:38:32;;;;;;;5.40;4.03;;;19.80;99.90;;;;;;5085204;28;20024;-54
2022/06/18 06:40:59;;;;;;;4.68;4.00;;;20.00;99.90;;;;;;5093887;28;20051;-55
2022/06/18 06:43:25;;;;;;;6.28;4.35;;;20.10;99.90;;;;;;5093663;28;20040;-53
2022/06/18 06:45:51;;;;;;;8.13;4.05;;;20.20;99.90;;;;;;5093690;28;20032;-54
2022/06/18 06:48:16;;;;;;;6.55;3.17;;;20.40;99.90;;;;;;5093492;28;20451;-54
2022/06/18 06:50:43;;;;;;;9.88;3.55;;;20.50;99.90;;;;;;5075408;28;20032;-52
2022/06/18 06:53:10;;;;;;;8.65;4.22;;;20.60;99.90;;;;;;5073049;28;20032;-53
2022/06/18 06:58:22;;;;;;;6.93;4.47;;;20.80;99.90;;;;;;5073293;28;20046;-54
2022/06/18 07:00:51;;;;;;;6.03;3.40;;;20.90;99.90;;;;;;5073195;28;20024;-53
2022/06/18 07:03:25;;;;;;;7.65;4.25;;;21.10;99.90;;;;;;5072921;28;20036;-54
2022/06/18 07:05:56;;;;;;;4.05;3.45;;;21.10;99.90;;;;;;5074240;28;20035;-52
2022/06/18 07:08:23;;;;;;;6.28;3.03;;;21.30;99.90;;;;;;5077872;28;20433;-55
2022/06/18 07:10:50;;;;;;;4.38;3.92;;;21.50;99.90;;;;;;5072995;28;20384;-55
2022/06/18 07:13:17;;;;;;;4.50;3.70;;;21.70;99.90;;;;;;5073573;28;20023;-54
2022/06/18 07:15:43;;;;;;;4.45;3.53;;;21.90;99.90;;;;;;5072517;28;20017;-54
2022/06/18 07:18:21;;;;;;;4.03;3.72;;;22.00;99.90;;;;;;5072720;28;20119;-53
2022/06/18 07:20:47;;;;;;;7.03;3.30;;;22.30;99.90;;;;;;5072391;28;20060;-55
2022/06/18 07:23:13;;;;;;;8.15;3.58;;;22.30;99.90;;;;;;5071999;28;20103;-54
2022/06/18 07:25:40;;;;;;;5.85;3.92;;;22.40;97.70;;;;;;5070719;28;20017;-52
2022/06/18 07:28:06;;;;;;;4.85;3.83;;;22.20;97.60;;;;;;5071410;28;20094;-55
2022/06/18 07:30:31;;;;;;;3.70;3.13;;;22.20;97.20;;;;;;5066191;28;20032;-54
2022/06/18 07:32:57;;;;;;;3.45;3.15;;;22.40;97.30;;;;;;5070542;28;20081;-53
2022/06/18 07:35:26;;;;;;;8.60;3.95;;;22.40;97.10;;;;;;5070161;28;20494;-55
2022/06/18 07:37:53;;;;;;;5.82;3.35;;;22.30;97.00;;;;;;5070377;28;20031;-55
2022/06/18 07:40:20;;;;;;;5.30;3.88;;;22.60;98.90;;;;;;5070699;28;20074;-54
2022/06/18 07:42:47;;;;;;;3.28;2.97;;;22.80;97.60;;;;;;5073616;28;20517;-55
2022/06/18 07:45:20;;;;;;;4.22;3.17;;;22.90;98.00;;;;;;5091177;28;20028;-54
2022/06/18 07:47:46;;;;;;;10.50;3.53;;;23.10;97.20;;;;;;5091753;28;20024;-55
2022/06/18 07:50:14;;;;;;;8.68;3.28;;;23.30;99.20;;;;;;5091130;28;20051;-53
2022/06/18 07:52:40;;;;;;;7.97;3.50;;;23.40;96.30;;;;;;5091200;28;20027;-55
2022/06/18 07:55:07;;;;;;;5.90;3.08;;;23.30;95.90;;;;;;5091050;28;20483;-55
2022/06/18 07:57:33;;;;;;;6.93;3.55;;;23.50;96.20;;;;;;5086669;28;20028;-54
2022/06/18 07:59:58;;;;;;;3.40;2.75;;;23.60;96.60;;;;;;5086414;28;20028;-54
2022/06/18 08:02:24;;;;;;;10.00;2.40;;;23.80;96.60;;;;;;5090039;28;20024;-54
2022/06/18 08:04:50;;;;;;;6.43;2.80;;;23.90;94.40;;;;;;5087631;28;20057;-55
2022/06/18 08:07:16;;;;;;;6.03;3.30;;;24.10;93.50;;;;;;5089974;28;20020;-53
2022/06/18 08:09:41;;;;;;;10.80;4.00;;;24.10;92.10;;;;;;5090865;28;20024;-55
2022/06/18 08:12:07;;;;;;;2.92;2.60;;;24.20;92.70;;;;;;5089903;28;20028;-54
2022/06/18 08:14:33;;;;;;;6.07;2.53;;;24.40;92.60;;;;;;5090438;28;20024;-54
2022/06/18 08:16:59;;;;;;;4.88;2.30;;;24.50;93.30;;;;;;5089889;28;20521;-51
2022/06/18 08:19:24;;;;;;;8.32;2.85;;;24.70;92.50;;;;;;5089591;28;20058;-54
2022/06/18 08:21:50;;;;;;;4.07;2.28;;;24.80;91.90;;;;;;5090026;28;20532;-55
2022/06/18 08:24:20;;;;;;;3.42;2.00;;;24.90;90.90;;;;;;5089990;28;20067;-53
2022/06/18 08:26:47;;;;;;;4.20;2.20;;;25.00;88.70;;;;;;5089768;28;20051;-54
2022/06/18 08:29:17;;;;;;;5.55;2.67;;;25.10;90.90;;;;;;5090121;28;20119;-55
2022/06/18 08:31:44;;;;;;;3.17;2.05;;;25.10;88.10;;;;;;5090057;28;20020;-54
2022/06/18 08:34:09;;;;;;;6.43;2.08;;;25.20;86.60;;;;;;5089853;28;20119;-55
2022/06/18 08:36:36;;;;;;;4.15;2.08;;;25.20;82.40;;;;;;5090352;28;20103;-55
2022/06/18 08:39:03;;;;;;;6.00;2.60;;;25.20;85.00;;;;;;5090585;28;20065;-54
2022/06/18 08:41:35;;;;;;;3.80;2.00;;;25.30;85.20;;;;;;5089824;28;20059;-55
2022/06/18 08:44:22;;;;;;;3.25;2.30;;;25.50;77.90;;;;;;5090141;28;20043;-55
2022/06/18 08:47:08;;;;;;;8.20;2.58;;;25.50;73.20;;;;;;5090355;28;20070;-54
2022/06/18 08:49:53;;;;;;;8.07;1.95;;;25.50;72.50;;;;;;5090975;28;20052;-54
2022/06/18 08:52:28;;;;;;;2.10;1.90;;;25.80;78.60;;;;;;5090008;28;20028;-52
2022/06/18 08:55:00;;;;;;;6.53;2.50;;;25.90;77.50;;;;;;5090377;28;20028;-55
2022/06/18 08:57:29;;;;;;;4.13;2.10;;;25.90;75.90;;;;;;5080097;28;20036;-55
2022/06/18 09:00:37;;;;;;;2.10;1.92;;;26.00;73.30;;;;;;5070232;28;20035;-55
2022/06/18 09:03:12;;;;;;;4.85;2.20;;;26.30;76.80;;;;;;5070041;28;20029;-55
2022/06/18 09:06:02;;;;;;;5.53;2.30;;;26.40;73.60;;;;;;5085381;28;20045;-56
2022/06/18 09:09:00;;;;;;;5.90;2.13;;;26.40;74.40;;;;;;5090224;28;20439;-52
2022/06/18 09:11:47;;;;;;;4.00;2.22;;;26.50;67.60;;;;;;5090073;28;20411;-55
2022/06/18 09:14:37;;;;;;;4.90;1.75;;;26.50;65.70;;;;;;5089984;28;20428;-55
2022/06/18 09:17:09;;;;;;;3.00;2.75;;;26.80;69.30;;;;;;5090222;28;20021;-54
2022/06/18 09:19:36;;;;;;;5.43;2.13;;;26.70;69.20;;;;;;5081587;28;20021;-54
2022/06/18 09:22:07;;;;;;;6.43;2.20;;;26.90;70.90;;;;;;5082535;28;20024;-55
2022/06/18 09:24:40;;;;;;;4.78;2.10;;;27.00;67.30;;;;;;5090020;28;20066;-55
2022/06/18 09:27:17;;;;;;;3.65;1.80;;;26.90;69.50;;;;;;5090101;28;20054;-55
2022/06/18 09:29:46;;;;;;;6.35;2.08;;;27.00;66.10;;;;;;5089454;28;20112;-50
2022/06/18 09:32:25;;;;;;;5.07;2.22;;;27.20;68.80;;;;;;5092616;28;20028;-52
2022/06/18 09:35:30;;;;;;;4.13;2.17;;;27.20;69.10;;;;;;5093088;28;20020;-54
2022/06/18 09:38:00;;;;;;;3.30;1.75;;;27.30;64.90;;;;;;5093770;28;20483;-52
2022/06/18 09:40:48;;;;;;;2.03;1.70;;;27.50;63.90;;;;;;5092171;28;20050;-49
2022/06/18 09:43:45;;;;;;;3.20;1.88;;;27.90;60.40;;;;;;5073080;28;20029;-56
2022/06/18 09:46:48;;;;;;;2.60;1.58;;;27.50;65.30;;;;;;5073533;28;20017;-54
2022/06/18 09:49:14;;;;;;;1.70;1.45;;;27.70;64.70;;;;;;5073148;28;20082;-55
2022/06/18 09:51:46;;;;;;;3.65;1.67;;;28.00;63.20;;;;;;5073257;28;20024;-56
2022/06/18 09:54:14;;;;;;;2.15;1.63;;;27.60;54.70;;;;;;5072295;28;20020;-56
2022/06/18 09:56:46;;;;;;;1.83;1.35;;;27.90;60.20;;;;;;5083475;28;20016;-50
2022/06/18 09:59:17;;;;;;;7.40;1.38;;;28.10;57.30;;;;;;5074347;28;20028;-50
2022/06/18 10:01:47;;;;;;;3.65;2.15;;;28.70;60.70;;;;;;5095403;28;20059;-53
2022/06/18 10:07:05;;;;;;;1.50;1.40;;;28.30;53.30;;;;;;5091775;28;20062;-55
2022/06/18 10:09:41;;;;;;;3.83;1.83;;;28.10;54.60;;;;;;5101970;28;20020;-54
2022/06/18 10:12:35;;;;;;;2.05;1.35;;;28.30;53.70;;;;;;5081224;28;20035;-54
2022/06/18 10:15:04;;;;;;;4.88;1.55;;;28.10;53.20;;;;;;5084511;28;20073;-51
2022/06/18 10:17:48;;;;;;;6.47;2.67;;;28.80;56.60;;;;;;5101656;27;20115;-54
2022/06/18 10:20:28;;;;;;;3.38;1.70;;;28.80;54.20;;;;;;5099726;28;20027;-52
2022/06/18 10:23:03;;;;;;;4.10;1.40;;;28.70;53.80;;;;;;5099765;28;20067;-50
2022/06/18 10:25:41;;;;;;;1.45;1.35;;;28.90;57.50;;;;;;5078157;28;20369;-55
2022/06/18 10:28:21;;;;;;;5.55;1.40;;;29.20;52.00;;;;;;5081385;28;20025;-54
2022/06/18 10:31:05;;;;;;;2.50;1.25;;;29.40;60.30;;;;;;5096728;28;20035;-50
2022/06/18 10:34:00;;;;;;;5.03;1.30;;;29.40;50.60;;;;;;5101813;28;20028;-52
2022/06/18 10:36:36;;;;;;;4.63;1.48;;;29.10;56.30;;;;;;5089573;28;20075;-53
2022/06/18 10:39:19;;;;;;;1.58;1.40;;;29.10;51.30;;;;;;5101657;28;20030;-54
2022/06/18 10:42:25;;;;;;;2.25;1.40;;;29.80;52.50;;;;;;5101401;27;20094;-53
2022/06/18 10:45:02;;;;;;;4.38;1.45;;;29.90;54.60;;;;;;5101437;28;20024;-53
2022/06/18 10:47:34;;;;;;;1.77;1.20;;;30.10;52.90;;;;;;5087486;28;20031;-54
2022/06/18 10:50:08;;;;;;;3.25;1.55;;;29.70;49.40;;;;;;5079478;28;20195;-55
2022/06/18 10:52:35;;;;;;;5.95;1.75;;;29.60;50.60;;;;;;5080854;28;20024;-52
2022/06/18 10:55:17;;;;;;;3.88;1.65;;;29.50;50.30;;;;;;5080389;28;20032;-55
2022/06/18 10:57:44;;;;;;;2.55;1.20;;;29.70;49.90;;;;;;5080675;28;20028;-54
2022/06/18 11:00:25;;;;;;;1.95;1.40;;;29.80;57.00;;;;;;5078141;28;20546;-54
2022/06/18 11:02:54;;;;;;;4.15;1.35;;;30.40;52.80;;;;;;5078945;28;20032;-50
2022/06/18 11:05:29;;;;;;;4.15;1.52;;;30.40;48.90;;;;;;5072468;28;20040;-51
2022/06/18 11:07:55;;;;;;;1.63;1.10;;;30.50;48.60;;;;;;5080274;28;20020;-54
2022/06/18 11:10:34;;;;;;;2.80;1.25;;;30.50;50.20;;;;;;5079865;28;20124;-53
2022/06/18 11:13:02;;;;;;;3.10;1.00;;;30.70;50.20;;;;;;5063037;28;20442;-55
2022/06/18 11:15:35;;;;;;;6.68;1.30;;;30.80;52.80;;;;;;5078367;28;20024;-51
2022/06/18 11:18:13;;;;;;;0.93;0.90;;;30.90;50.60;;;;;;5078487;28;20036;-52
2022/06/18 11:20:51;;;;;;;1.92;1.17;;;30.90;46.70;;;;;;5066620;28;20041;-51
2022/06/18 11:23:17;;;;;;;1.88;1.20;;;30.80;45.50;;;;;;5075353;28;20121;-53
2022/06/18 11:25:51;;;;;;;3.25;0.90;;;30.80;47.90;;;;;;5077743;28;20491;-52
2022/06/18 11:28:25;;;;;;;4.72;1.20;;;30.80;45.40;;;;;;5078480;28;20184;-52
2022/06/18 11:30:52;;;;;;;2.00;0.88;;;30.80;46.30;;;;;;5077899;28;20051;-50
2022/06/18 11:33:39;;;;;;;3.47;1.20;;;30.70;46.80;;;;;;5079679;28;20613;-53
2022/06/18 11:36:12;;;;;;;3.00;1.23;;;30.90;51.10;;;;;;5063335;28;20024;-54
2022/06/18 11:38:39;;;;;;;2.17;0.77;;;30.90;45.80;;;;;;5078905;28;20103;-53
2022/06/18 11:41:23;;;;;;;1.65;1.00;;;31.30;44.30;;;;;;5078625;28;20043;-54
2022/06/18 11:44:16;;;;;;;4.53;1.13;;;31.60;45.90;;;;;;5080225;28;20103;-53
2022/06/18 11:46:47;;;;;;;2.47;1.02;;;31.00;42.30;;;;;;5080130;28;20028;-52
2022/06/18 11:49:22;;;;;;;1.58;0.82;;;31.10;43.50;;;;;;5079635;28;20031;-53
2022/06/18 11:51:59;;;;;;;3.95;1.00;;;31.30;48.80;;;;;;5080270;28;20028;-54
2022/06/18 11:55:00;;;;;;;3.40;0.98;;;31.90;45.80;;;;;;5078519;28;20028;-53
2022/06/18 11:57:44;;;;;;;1.73;0.90;;;31.40;42.00;;;;;;5079584;28;20020;-50
2022/06/18 12:00:52;;;;;;;1.80;1.08;;;32.30;50.10;;;;;;5079405;28;20031;-54
2022/06/18 12:03:35;;;;;;;5.15;1.20;;;32.50;44.80;;;;;;5078461;28;20535;-53
2022/06/18 12:06:15;;;;;;;3.47;1.52;;;32.40;42.10;;;;;;5079489;28;20024;-51
2022/06/18 12:08:41;;;;;;;6.53;1.00;;;32.40;42.80;;;;;;5079509;28;20120;-55
2022/06/18 12:11:36;;;;;;;2.72;1.00;;;32.30;44.40;;;;;;5079215;28;20442;-55
2022/06/18 12:14:11;;;;;;;5.20;0.98;;;32.20;44.40;;;;;;5078718;28;20024;-53
2022/06/18 12:16:52;;;;;;;5.55;1.00;;;32.60;42.10;;;;;;5079189;28;20043;-51
2022/06/18 12:19:26;;;;;;;5.10;1.40;;;33.00;46.30;;;;;;5077348;28;20028;-52
2022/06/18 12:22:13;;;;;;;3.55;1.23;;;33.70;41.00;;;;;;5079355;28;20032;-51
2022/06/18 12:24:57;;;;;;;2.67;1.13;;;34.60;42.80;;;;;;5079515;28;22593;-51
2022/06/18 12:27:26;;;;;;;3.95;1.23;;;34.90;43.80;;;;;;5078103;28;20032;-51
2022/06/18 12:30:07;;;;;;;4.95;1.33;;;34.90;40.80;;;;;;5079796;28;20040;-54
2022/06/18 12:32:55;;;;;;;4.53;0.90;;;35.10;40.30;;;;;;5079367;28;20032;-54
2022/06/18 12:35:42;;;;;;;1.05;0.82;;;36.20;38.40;;;;;;5064455;28;20069;-54
2022/06/18 12:38:32;;;;;;;2.55;0.85;;;37.00;38.50;;;;;;5069484;28;20057;-55
2022/06/18 12:41:19;;;;;;;5.40;0.80;;;36.80;37.90;;;;;;5065228;28;20041;-55
2022/06/18 12:43:47;;;;;;;2.80;1.00;;;37.70;38.20;;;;;;5077006;28;20047;-55
2022/06/18 12:46:51;;;;;;;2.97;1.02;;;37.30;40.20;;;;;;5078464;28;20419;-56
2022/06/18 12:49:42;;;;;;;1.02;0.73;;;38.90;38.80;;;;;;5065320;28;20048;-56
2022/06/18 12:52:32;;;;;;;4.53;0.80;;;38.70;36.30;;;;;;5046959;28;20072;-56
2022/06/18 12:55:28;;;;;;;1.05;0.60;;;39.10;36.00;;;;;;5077677;28;20028;-56
2022/06/18 12:57:59;;;;;;;1.00;0.60;;;38.70;36.20;;;;;;5071021;28;20653;-55
2022/06/18 13:00:34;;;;;;;2.05;0.50;;;40.10;32.90;;;;;;5078894;28;20548;-55
2022/06/18 13:03:18;;;;;;;0.43;0.38;;;39.00;35.60;;;;;;5078324;28;20081;-56
2022/06/18 13:05:49;;;;;;;3.67;0.60;;;39.30;34.70;;;;;;5081388;28;20312;-56
2022/06/18 13:08:27;;;;;;;3.83;0.40;;;39.80;34.80;;;;;;5083394;28;20111;-56
2022/06/18 13:11:46;;;;;;;0.98;0.30;;;40.00;32.40;;;;;;5082697;28;20032;-55
2022/06/18 13:14:18;;;;;;;1.35;0.50;;;40.50;31.30;;;;;;5059412;28;20039;-56
2022/06/18 13:16:54;;;;;;;1.65;0.60;;;37.70;31.10;;;;;;5080759;28;20036;-56
2022/06/18 13:19:34;;;;;;;3.08;0.70;;;38.60;34.00;;;;;;5083252;28;20050;-55
2022/06/18 13:22:05;;;;;;;3.05;0.63;;;38.50;34.70;;;;;;5082728;28;20031;-55
2022/06/18 13:30:21;;;;;;;5.30;0.40;;;36.60;32.00;;;;;;5082065;28;20038;-55
2022/06/18 13:33:17;;;;;;;1.00;0.40;;;37.50;31.20;;;;;;5080997;28;20059;-56
2022/06/18 13:36:00;;;;;;;1.85;0.65;;;38.40;35.80;;;;;;5074894;28;20063;-56